Terminal Aerodrome Forecast
Issued by NWS

Home | Current Version | Previous Version | Text Only | Print | Product List | Glossary On
Versions: 1 2 3 4 5 6 7 8 9 10 11 12 13 14 15 16 17 18
000
FTUS41 KCAR 300902 AAC
TAFPQI
TAF AMD
KPQI 300902Z 3009/3106 00000KT P6SM SCT003
     FM301000 14004KT 3SM BR SCT002
     FM301200 16010KT P6SM SCT250
     FM302300 17007KT 3SM -SHRA SCT025 OVC060
     FM310200 17005KT 5SM BR SCT007 BKN100
     FM310400 18005KT 2SM BR BKN005
      AMD LTD TO CLD VIS AND WIND=

USA.gov is the U.S. government's official web portal to all federal, state and local government web resources and services.